Ridge Manor, Florida
Current Conditions -  °F | °C
As of 7:15 PM on Sunday 23 Nov 2014 (Local Time) from KZPH Reporting Station
Clear Clear  
Wind Chill: 75°   Ceiling: Unl
Heat Index: 75°   Visibility: 10mi
Dew Point: 68°   Wind: 6mph
Humidity: 78%   Direction: 190°S
Pressure: 29.92"   Gusts: NA
Location:  28.3653°N, 82.1963°W
Report Text: KZPH 240015Z AUTO 19005KT 10SM CLR 24/20 A2992 RMK AO2
Loading
Personal Weather Stations






























Interactive Weather Map New forecast layout! Learn more

10-Day Weather Forecast

Advertisements
Track Severe Weather on mobile